Tropical Cyclones
[Index]
Main Index Home Page Stock Weather Photos Extreme Storms Discussion Storm News and Storm Chasing Reports Tropical Cyclones / Hurricanes / Typhoons Weather Data and Links Wild Fires / Bushfires Weather Observation Techniques Weather Picture Catalogue Tornado Pictures and Reports Stock Video Footage and DVDs for sale
Season 1971-1972 Tropical Cyclone WENDY Track Map
Season 1971-1972 Summaries: [BoM-AU] [JTWC-AU] [JTWC-SIO] [JTWC-SPAC] [JTWC-SH]
<<- Previous TC | JTWC 1971-1972 Season | Next TC ->>

click for intensity scale information  Lat/long Grid: Show Hide

 Date Labels: Show Hide

Joint Typhoon Warning Centre Cyclone Data

Name: WENDY
Number: 784 / 7213

29 Jan 1972 18:00 UTC to 09 Feb 1972 12:00 UTC

    date/time    lat    long     hPa   cat  kts
1972-01-29 18   10.0   175.0            3     80          
1972-01-30 00   10.0   175.0            4    120          
1972-01-30 06   10.0   175.0            3     95          
1972-01-30 12   10.0   175.0            1     40          
1972-01-30 18   10.0   175.0                  30          
1972-01-31 00   10.1   174.9                  30          
1972-01-31 06   10.2   174.5                  25          
1972-01-31 12   10.4   174.0                  25          
1972-01-31 18   10.7   173.5                  25          
1972-02-01 00   11.1   172.9                  25          
1972-02-01 06   11.7   172.0                  30          
1972-02-01 12   12.5   170.5                  30          
1972-02-01 18   13.1   169.3                  30          
1972-02-02 00   13.6   168.3                  30          
1972-02-02 06   13.7   167.9                  35          
1972-02-02 12   13.7   167.6                  35          
1972-02-02 18   13.8   167.3                  35          
1972-02-03 00   14.0   166.9                  30          
1972-02-03 06   14.3   166.5                  30          
1972-02-03 12   14.5   166.0                  30          
1972-02-03 18   14.8   165.7                  30          
1972-02-04 00   15.4   165.4                  30          
1972-02-04 06   16.1   165.1                  30          
1972-02-04 12   16.9   164.8                  30          
1972-02-04 18   17.6   164.5                  30          
1972-02-05 00   18.3   164.2                  30          
1972-02-05 06   19.0   163.8                  30          
1972-02-05 12   19.8   163.1                  30          
1972-02-05 18   20.5   162.3                  35          
1972-02-06 00   21.1   161.5                  35          
1972-02-06 06   21.7   160.7                              
1972-02-06 12   22.2   160.0                              
1972-02-06 18   22.8   159.6                              
1972-02-07 00   23.5   159.6                              
1972-02-07 06   24.1   160.0                              
1972-02-07 12   24.6   160.5                              
1972-02-07 18   25.1   160.4                              
1972-02-08 00   25.5   160.2                              
1972-02-08 06   25.8   159.9                              
1972-02-08 12   25.9   159.6                              
1972-02-08 18   26.1   159.2                              
1972-02-09 00   26.2   158.7                              
1972-02-09 06   26.2   158.0                              
1972-02-09 12   26.0   156.9                              
Winds are 1-min average.

Tropical cyclone tracks developed by Michael Bath using data from the Joint Typhoon Warning Centre Best Tracks and Google Maps.


[Australian Severe Weather index] [Copyright Notice] [Email Contacts] [Search This Site] [Privacy Policy]
Document: tropical_cyclone_wendy.htm Updated: 18 September 2016